createdAt,value
2018-08-30T00:01:42.006Z,98014.58
2018-08-30T00:04:11.510Z,98019.53
2018-08-30T00:06:40.914Z,98016.53
2018-08-30T00:09:10.214Z,98012.14
2018-08-30T00:11:39.718Z,98010.88
2018-08-30T00:14:09.150Z,98007.16
2018-08-30T00:16:38.520Z,98015.30
2018-08-30T00:19:07.779Z,98012.45
2018-08-30T00:21:37.122Z,98017.31
2018-08-30T00:24:06.602Z,98015.80
2018-08-30T00:26:36.026Z,98026.18
2018-08-30T00:29:05.428Z,98031.71
2018-08-30T00:31:34.831Z,98026.53
2018-08-30T00:34:04.233Z,98021.86
2018-08-30T00:36:33.634Z,98024.87
2018-08-30T00:39:03.035Z,98024.60
2018-08-30T00:41:32.322Z,98027.29
2018-08-30T00:44:01.788Z,98027.80
2018-08-30T00:46:31.038Z,98036.74
2018-08-30T00:49:00.439Z,98032.21
2018-08-30T00:51:29.842Z,98031.72
2018-08-30T00:53:59.350Z,98030.45
2018-08-30T00:56:28.747Z,98036.78
2018-08-30T00:58:58.457Z,98034.66
2018-08-30T01:01:27.859Z,98034.13
2018-08-30T01:03:57.364Z,98031.50
2018-08-30T01:06:26.664Z,98032.11
2018-08-30T01:08:56.065Z,98041.45
2018-08-30T01:11:25.467Z,98040.21
2018-08-30T01:13:54.971Z,98041.72
2018-08-30T01:16:24.374Z,98042.82
2018-08-30T01:18:53.775Z,98042.50
2018-08-30T01:21:23.177Z,98037.97
2018-08-30T01:23:52.581Z,98038.20
2018-08-30T01:26:21.910Z,98040.05
2018-08-30T01:28:51.193Z,98047.20
2018-08-30T01:31:20.940Z,98049.56
2018-08-30T01:33:50.394Z,98046.10
2018-08-30T01:36:19.796Z,98045.78
2018-08-30T01:38:49.311Z,98048.45
2018-08-30T01:41:18.880Z,98044.19
2018-08-30T01:43:48.311Z,98049.37
2018-08-30T01:46:17.549Z,98051.52
2018-08-30T01:48:46.907Z,98052.33
2018-08-30T01:51:16.411Z,98052.23
2018-08-30T01:53:45.737Z,98049.92
2018-08-30T01:56:15.215Z,98052.04
2018-08-30T01:58:44.694Z,98059.75
2018-08-30T02:01:14.125Z,98056.50
2018-08-30T02:03:43.525Z,98060.08
2018-08-30T02:06:12.927Z,98059.92
2018-08-30T02:08:42.533Z,98069.23
2018-08-30T02:11:12.106Z,98072.55
2018-08-30T02:13:41.553Z,98064.77
2018-08-30T02:16:10.885Z,98062.03
2018-08-30T02:18:40.346Z,98068.60
2018-08-30T02:21:09.748Z,98067.41
2018-08-30T02:23:39.048Z,98069.84
2018-08-30T02:26:08.374Z,98068.52
2018-08-30T02:28:37.666Z,98064.22
2018-08-30T02:31:07.151Z,98057.37
2018-08-30T02:33:36.554Z,98058.22
2018-08-30T02:36:06.058Z,98067.34
2018-08-30T02:38:35.460Z,98071.38
2018-08-30T02:41:05.067Z,98076.48
2018-08-30T02:43:34.571Z,98074.84
2018-08-30T02:46:03.981Z,98072.69
2018-08-30T02:48:33.210Z,98074.72
2018-08-30T02:51:02.573Z,98076.22
2018-08-30T02:53:31.975Z,98073.53
2018-08-30T02:56:01.278Z,98078.88
2018-08-30T02:58:30.676Z,98080.37
2018-08-30T03:01:00.187Z,98077.63
2018-08-30T03:03:29.584Z,98081.02
2018-08-30T03:05:59.189Z,98082.90
2018-08-30T03:08:28.592Z,98082.34
2018-08-30T03:10:57.892Z,98084.75
2018-08-30T03:13:27.102Z,98088.22
2018-08-30T03:15:56.592Z,98092.97
2018-08-30T03:18:25.996Z,98088.48
2018-08-30T03:20:55.396Z,98086.56
2018-08-30T03:23:24.799Z,98086.52
2018-08-30T03:25:54.302Z,98089.48
2018-08-30T03:28:23.704Z,98092.70
2018-08-30T03:30:53.258Z,98089.16
2018-08-30T03:33:22.430Z,98090.23
2018-08-30T03:35:51.810Z,98090.23
2018-08-30T03:38:21.210Z,98086.70
2018-08-30T03:40:50.715Z,98081.45
2018-08-30T03:43:20.117Z,98089.70
2018-08-30T03:45:49.419Z,98091.48
2018-08-30T03:48:18.921Z,98088.50
2018-08-30T03:50:48.322Z,98090.94
2018-08-30T03:53:17.729Z,98091.45
2018-08-30T03:55:47.436Z,98091.00
2018-08-30T03:58:16.782Z,98092.23
2018-08-30T04:00:46.445Z,98093.89
2018-08-30T04:03:15.846Z,98092.95
2018-08-30T04:05:45.178Z,98098.47
2018-08-30T04:08:14.440Z,98099.73
2018-08-30T04:10:44.011Z,98106.88
2018-08-30T04:13:13.454Z,98104.47
2018-08-30T04:15:42.957Z,98105.54
2018-08-30T04:18:12.360Z,98110.66
2018-08-30T04:20:41.610Z,98113.23
2018-08-30T04:23:10.796Z,98108.46
2018-08-30T04:25:40.260Z,98110.36
2018-08-30T04:28:09.665Z,98111.00
2018-08-30T04:30:39.014Z,98116.50
2018-08-30T04:33:08.459Z,98116.84
2018-08-30T04:35:37.766Z,98121.52
2018-08-30T04:38:07.342Z,98122.62
2018-08-30T04:40:36.775Z,97897.53
2018-08-30T04:43:06.176Z,98122.78
2018-08-30T04:45:35.578Z,98126.46
2018-08-30T04:48:04.980Z,98136.42
2018-08-30T04:50:34.557Z,98134.20
2018-08-30T04:53:03.992Z,98139.64
2018-08-30T04:55:33.398Z,98146.56
2018-08-30T04:58:02.792Z,98146.84
2018-08-30T05:00:32.050Z,98155.94
2018-08-30T05:03:01.290Z,98163.66
2018-08-30T05:05:30.589Z,98162.41
2018-08-30T05:07:59.909Z,98168.73
2018-08-30T05:10:29.393Z,98172.47
2018-08-30T05:12:58.795Z,98182.52
2018-08-30T05:15:28.196Z,98184.72
2018-08-30T05:17:57.497Z,98180.05
2018-08-30T05:20:26.926Z,98193.10
2018-08-30T05:22:56.228Z,98194.08
2018-08-30T05:25:25.649Z,98203.03
2018-08-30T05:27:55.004Z,98214.16
2018-08-30T05:30:24.331Z,98219.78
2018-08-30T05:32:54.118Z,98217.47
2018-08-30T05:35:23.620Z,98223.45
2018-08-30T05:37:53.838Z,98230.92
2018-08-30T05:40:23.046Z,98232.66
2018-08-30T05:42:52.648Z,98232.32
2018-08-30T05:45:22.103Z,98234.20
2018-08-30T05:47:51.652Z,98240.78
2018-08-30T05:50:21.085Z,98242.78
2018-08-30T05:52:50.661Z,98239.66
2018-08-30T05:55:20.064Z,98252.09
2018-08-30T05:57:49.567Z,98252.98
2018-08-30T06:00:18.900Z,98253.14
2018-08-30T06:02:48.268Z,98255.42
2018-08-30T06:05:17.673Z,98256.67
2018-08-30T06:07:46.936Z,98256.30
2018-08-30T06:10:16.290Z,98259.19
2018-08-30T06:12:45.484Z,98272.04
2018-08-30T06:15:14.869Z,98275.30
2018-08-30T06:17:44.577Z,98280.76
2018-08-30T06:20:13.981Z,98270.50
2018-08-30T06:22:43.485Z,98277.20
2018-08-30T06:25:12.888Z,98284.09
2018-08-30T06:27:42.292Z,98283.05
2018-08-30T06:30:11.691Z,98285.65
2018-08-30T06:32:41.279Z,98290.75
2018-08-30T06:35:10.603Z,98287.92
2018-08-30T06:37:39.998Z,98289.79
2018-08-30T06:40:09.810Z,98283.58
2018-08-30T06:42:39.212Z,98301.30
2018-08-30T06:45:08.613Z,98306.62
2018-08-30T06:47:38.016Z,98308.55
2018-08-30T06:50:07.520Z,98313.50
2018-08-30T06:52:36.920Z,98322.09
2018-08-30T06:55:06.535Z,98323.50
2018-08-30T06:57:35.932Z,98323.84
2018-08-30T07:00:06.154Z,98330.11
2018-08-30T07:02:35.657Z,98336.04
2018-08-30T07:05:05.161Z,98337.20
2018-08-30T07:07:34.563Z,98335.88
2018-08-30T07:10:04.027Z,98345.48
2018-08-30T07:12:33.264Z,98341.06
2018-08-30T07:15:02.792Z,98342.22
2018-08-30T07:17:32.275Z,98347.57
2018-08-30T07:20:01.677Z,98351.66
2018-08-30T07:22:31.077Z,98357.91
2018-08-30T07:25:00.277Z,98369.87
2018-08-30T07:27:29.780Z,98369.57
2018-08-30T07:29:59.180Z,98375.19
2018-08-30T07:32:28.583Z,98384.75
2018-08-30T07:34:58.074Z,98395.41
2018-08-30T07:37:27.166Z,98388.50
2018-08-30T07:39:56.480Z,98401.02
2018-08-30T07:42:25.885Z,98406.47
2018-08-30T07:44:55.179Z,98412.30
2018-08-30T07:47:24.586Z,98410.72
2018-08-30T07:49:54.062Z,98414.70
2018-08-30T07:52:23.493Z,98418.31
2018-08-30T07:54:52.894Z,98432.19
2018-08-30T07:57:22.426Z,98427.94
2018-08-30T07:59:51.718Z,98431.93
2018-08-30T08:02:21.017Z,98437.95
2018-08-30T08:04:50.298Z,98434.50
2018-08-30T08:07:19.852Z,98445.13
2018-08-30T08:09:49.203Z,98452.27
2018-08-30T08:12:18.606Z,98453.26
2018-08-30T08:14:47.847Z,98456.43
2018-08-30T08:17:17.264Z,98454.86
2018-08-30T08:19:46.553Z,98471.08
2018-08-30T08:22:15.786Z,98474.33
2018-08-30T08:24:45.039Z,98476.94
2018-08-30T08:27:14.404Z,98480.47
2018-08-30T08:29:43.805Z,98480.57
2018-08-30T08:32:13.103Z,98490.17
2018-08-30T08:34:42.509Z,98492.81
2018-08-30T08:37:11.994Z,98492.63
2018-08-30T08:39:41.414Z,98492.80
2018-08-30T08:42:10.712Z,98499.95
2018-08-30T08:44:40.116Z,98493.70
2018-08-30T08:47:09.518Z,98499.64
2018-08-30T08:49:38.871Z,98497.37
2018-08-30T08:52:08.264Z,98506.67
2018-08-30T08:54:37.527Z,98505.34
2018-08-30T08:57:07.134Z,98508.38
2018-08-30T08:59:36.529Z,98508.91
2018-08-30T09:02:05.927Z,98512.39
2018-08-30T09:04:35.436Z,98515.48
2018-08-30T09:07:04.679Z,98518.39
2018-08-30T09:09:34.134Z,98518.67
2018-08-30T09:12:03.376Z,98521.75
2018-08-30T09:14:32.928Z,98521.11
2018-08-30T09:17:02.339Z,98522.66
2018-08-30T09:19:32.050Z,98522.84
2018-08-30T09:22:01.451Z,98523.81
2018-08-30T09:24:30.853Z,98522.05
2018-08-30T09:27:00.265Z,98530.97
2018-08-30T09:29:29.657Z,98524.68
2018-08-30T09:32:00.696Z,98530.51
2018-08-30T09:34:29.997Z,98531.17
2018-08-30T09:36:59.400Z,98532.44
2018-08-30T09:39:28.801Z,98530.66
2018-08-30T09:41:58.203Z,98535.39
2018-08-30T09:44:27.605Z,98534.50
2018-08-30T09:46:56.908Z,98544.45
2018-08-30T09:49:26.451Z,98538.21
2018-08-30T09:51:56.010Z,98543.33
2018-08-30T09:54:25.623Z,98541.52
2018-08-30T09:56:55.091Z,98549.41
2018-08-30T09:59:24.528Z,98550.44
2018-08-30T10:01:59.116Z,98548.08
2018-08-30T10:04:28.555Z,98554.27
2018-08-30T10:06:58.043Z,98556.20
2018-08-30T10:09:28.486Z,98550.89
2018-08-30T10:11:58.199Z,98550.08
2018-08-30T10:14:27.699Z,98546.98
2018-08-30T10:16:57.203Z,98548.11
2018-08-30T10:19:26.567Z,98548.24
2018-08-30T10:21:56.213Z,98555.89
2018-08-30T10:24:25.487Z,98546.25
2018-08-30T10:26:55.004Z,98547.86
2018-08-30T10:29:24.418Z,98545.22
2018-08-30T10:31:53.682Z,98547.95
2018-08-30T10:34:23.324Z,98563.43
2018-08-30T10:36:52.788Z,98549.77
2018-08-30T10:39:22.050Z,98553.34
2018-08-30T10:41:51.316Z,98549.99
2018-08-30T10:44:20.728Z,98553.45
2018-08-30T10:46:49.928Z,98551.80
2018-08-30T10:49:19.368Z,98551.80
2018-08-30T10:51:48.796Z,98556.48
2018-08-30T10:54:25.607Z,98555.15
2018-08-30T10:56:55.009Z,98561.94
2018-08-30T10:59:24.513Z,98566.75
2018-08-30T11:01:53.955Z,98569.20
2018-08-30T11:04:23.570Z,98572.88
2018-08-30T11:06:53.067Z,98568.27
2018-08-30T11:09:22.702Z,98563.17
2018-08-30T11:11:52.138Z,98562.70
2018-08-30T11:14:21.547Z,98567.82
2018-08-30T11:16:51.045Z,98565.14
2018-08-30T11:19:20.400Z,98564.57
2018-08-30T11:21:49.747Z,98570.24
2018-08-30T11:24:19.148Z,98569.64
2018-08-30T11:26:48.596Z,98574.68
2018-08-30T11:29:17.951Z,98573.43
2018-08-30T11:31:47.356Z,98580.05
2018-08-30T11:34:16.598Z,98579.88
2018-08-30T11:36:45.815Z,98587.73
2018-08-30T11:39:15.252Z,98588.22
2018-08-30T11:41:44.769Z,98587.98
2018-08-30T11:44:14.160Z,98591.66
2018-08-30T11:46:43.560Z,98587.44
2018-08-30T11:49:12.962Z,98595.05
2018-08-30T11:51:42.286Z,98596.08
2018-08-30T11:54:11.644Z,98590.53
2018-08-30T11:56:41.066Z,98594.58
2018-08-30T11:59:10.297Z,98597.14
2018-08-30T12:01:39.767Z,98600.35
2018-08-30T12:04:10.597Z,98605.37
2018-08-30T12:06:39.983Z,98618.55
2018-08-30T12:09:10.534Z,98619.75
2018-08-30T12:11:40.698Z,98630.16
2018-08-30T12:14:09.980Z,98640.88
2018-08-30T12:16:39.661Z,98640.81
2018-08-30T12:19:09.072Z,98650.97
2018-08-30T12:21:38.464Z,98651.66
2018-08-30T12:24:07.845Z,98657.25
2018-08-30T12:26:37.438Z,98642.66
2018-08-30T12:29:06.913Z,98643.44
2018-08-30T12:31:36.619Z,98650.69
2018-08-30T12:34:06.105Z,98646.35
2018-08-30T12:36:35.507Z,98648.55
2018-08-30T12:39:06.150Z,98644.22
2018-08-30T12:41:35.533Z,98641.97
2018-08-30T12:44:04.934Z,98644.33
2018-08-30T12:46:34.481Z,98643.38
2018-08-30T12:49:03.992Z,98641.39
2018-08-30T12:51:33.456Z,98649.10
2018-08-30T12:54:02.755Z,98650.13
2018-08-30T12:56:38.495Z,98638.56
2018-08-30T12:59:13.202Z,98646.17
2018-08-30T13:01:42.543Z,98641.05
2018-08-30T13:04:11.801Z,98639.71
2018-08-30T13:06:45.812Z,98638.26
2018-08-30T13:09:16.480Z,98644.75
2018-08-30T13:11:45.787Z,98650.95
2018-08-30T13:14:15.127Z,98653.42
2018-08-30T13:16:44.385Z,98651.57
2018-08-30T13:19:13.768Z,98654.95
2018-08-30T13:21:43.235Z,98649.83
2018-08-30T13:24:12.775Z,98652.28
2018-08-30T13:26:42.309Z,98650.30
2018-08-30T13:29:11.578Z,98649.53
2018-08-30T13:31:41.383Z,98648.05
2018-08-30T13:34:10.823Z,98649.02
2018-08-30T13:36:40.256Z,98648.64
2018-08-30T13:39:10.507Z,98653.30
2018-08-30T13:41:40.392Z,98644.02
2018-08-30T13:44:10.874Z,98638.84
2018-08-30T13:46:41.356Z,98640.32
2018-08-30T13:49:11.570Z,98636.05
2018-08-30T13:51:41.062Z,98637.18
2018-08-30T13:54:10.631Z,98641.26
2018-08-30T13:56:40.207Z,98638.96
2018-08-30T13:59:09.638Z,98640.03
2018-08-30T14:01:39.075Z,98638.82
2018-08-30T14:04:08.416Z,98631.51
2018-08-30T14:06:37.662Z,98632.64
2018-08-30T14:09:07.271Z,98631.18
2018-08-30T14:11:36.468Z,98624.84
2018-08-30T14:14:05.808Z,98626.48
2018-08-30T14:16:34.919Z,98632.57
2018-08-30T14:19:04.348Z,98626.42
2018-08-30T14:21:33.896Z,98631.98
2018-08-30T14:24:03.386Z,98620.45
2018-08-30T14:26:32.808Z,98617.48
2018-08-30T14:29:02.341Z,98619.16
2018-08-30T14:31:31.740Z,98613.73
2018-08-30T14:34:00.947Z,98620.78
2018-08-30T14:36:30.530Z,98622.49
2018-08-30T14:38:59.785Z,98618.56
2018-08-30T14:41:29.186Z,98620.72
2018-08-30T14:43:58.287Z,98623.16
2018-08-30T14:46:27.534Z,98625.95
2018-08-30T14:48:56.837Z,98621.92
2018-08-30T14:51:26.092Z,98625.58
2018-08-30T14:53:56.845Z,98613.97
2018-08-30T14:56:26.067Z,98619.09
2018-08-30T14:58:55.571Z,98624.72
2018-08-30T15:01:25.179Z,98609.69
2018-08-30T15:03:54.494Z,98612.39
2018-08-30T15:06:24.019Z,98613.78
2018-08-30T15:08:53.286Z,98617.75
2018-08-30T15:11:22.932Z,98621.14
2018-08-30T15:13:52.393Z,98622.25
2018-08-30T15:16:21.950Z,98626.01
2018-08-30T15:18:51.300Z,98621.91
2018-08-30T15:21:20.600Z,98633.30
2018-08-30T15:23:49.901Z,98630.33
2018-08-30T15:26:19.405Z,98632.60
2018-08-30T15:28:48.859Z,98627.94
2018-08-30T15:31:18.308Z,98633.15
2018-08-30T15:33:47.820Z,98630.67
2018-08-30T15:36:17.319Z,98625.84
2018-08-30T15:38:46.614Z,98635.89
2018-08-30T15:41:16.216Z,98643.50
2018-08-30T15:43:45.420Z,98639.39
2018-08-30T15:46:14.754Z,98653.11
2018-08-30T15:48:44.175Z,98659.48
2018-08-30T15:51:13.625Z,98657.88
2018-08-30T15:53:43.102Z,98656.93
2018-08-30T15:56:12.635Z,98652.19
2018-08-30T15:58:42.139Z,98647.05
2018-08-30T16:01:11.648Z,98648.59
2018-08-30T16:03:41.355Z,98643.78
2018-08-30T16:06:11.889Z,98647.52
2018-08-30T16:08:41.388Z,98647.78
2018-08-30T16:11:11.763Z,98643.23
2018-08-30T16:13:41.213Z,98643.72
2018-08-30T16:16:10.787Z,98641.27
2018-08-30T16:18:40.341Z,98645.69
2018-08-30T16:21:09.934Z,98639.22
2018-08-30T16:23:39.540Z,98640.00
2018-08-30T16:26:10.303Z,98639.24
2018-08-30T16:28:39.855Z,98640.88
2018-08-30T16:31:09.450Z,98637.14
2018-08-30T16:33:38.786Z,98640.67
2018-08-30T16:36:08.493Z,98647.52
2018-08-30T16:38:38.047Z,98646.01
2018-08-30T16:41:07.708Z,98651.89
2018-08-30T16:43:37.211Z,98653.35
2018-08-30T16:46:07.433Z,98640.92
2018-08-30T16:48:36.998Z,98650.43
2018-08-30T16:51:06.294Z,98661.79
2018-08-30T16:53:35.743Z,98654.08
2018-08-30T16:56:05.423Z,98657.67
2018-08-30T16:58:34.850Z,98659.27
2018-08-30T17:01:04.254Z,98649.75
2018-08-30T17:03:33.654Z,98661.10
2018-08-30T17:06:04.187Z,98659.24
2018-08-30T17:08:33.417Z,98660.54
2018-08-30T17:11:02.683Z,98657.41
2018-08-30T17:13:32.084Z,98662.23
2018-08-30T17:16:01.399Z,98659.42
2018-08-30T17:18:30.888Z,98669.11
2018-08-30T17:21:00.392Z,98665.64
2018-08-30T17:23:29.647Z,98668.02
2018-08-30T17:25:58.950Z,98668.11
2018-08-30T17:28:28.212Z,98669.56
2018-08-30T17:30:57.794Z,98670.73
2018-08-30T17:33:27.161Z,98673.41
2018-08-30T17:35:56.804Z,98667.80
2018-08-30T17:38:26.310Z,98667.06
2018-08-30T17:40:56.019Z,98673.97
2018-08-30T17:43:25.527Z,98684.05
2018-08-30T17:45:55.140Z,98682.77
2018-08-30T17:48:24.633Z,98686.38
2018-08-30T17:50:54.169Z,98694.45
2018-08-30T17:53:23.747Z,98697.70
2018-08-30T17:55:53.423Z,98695.75
2018-08-30T17:58:23.059Z,98704.25
2018-08-30T18:00:52.451Z,98711.91
2018-08-30T18:03:21.966Z,98704.00
2018-08-30T18:05:51.326Z,98709.58
2018-08-30T18:08:20.623Z,98712.08
2018-08-30T18:10:55.498Z,98718.77
2018-08-30T18:13:24.899Z,98721.59
2018-08-30T18:15:54.151Z,98721.16
2018-08-30T18:18:23.520Z,98718.78
2018-08-30T18:20:53.207Z,98725.56
2018-08-30T18:23:22.591Z,98725.70
2018-08-30T18:25:52.012Z,98725.02
2018-08-30T18:28:21.514Z,98729.86
2018-08-30T18:30:50.857Z,98730.98
2018-08-30T18:33:20.321Z,98729.66
2018-08-30T18:35:49.621Z,98731.35
2018-08-30T18:38:19.124Z,98741.09
2018-08-30T18:40:48.734Z,98745.10
2018-08-30T18:43:19.300Z,98751.06
2018-08-30T18:45:49.073Z,98754.77
2018-08-30T18:48:18.780Z,98759.27
2018-08-30T18:50:48.284Z,98759.05
2018-08-30T18:53:17.539Z,98767.37
2018-08-30T18:55:47.192Z,98762.03
2018-08-30T18:58:16.593Z,98773.70
2018-08-30T19:00:46.095Z,98777.08
2018-08-30T19:03:15.552Z,98782.91
2018-08-30T19:05:44.931Z,98781.91
2018-08-30T19:08:14.407Z,98782.53
2018-08-30T19:10:44.013Z,98789.53
2018-08-30T19:13:13.453Z,98791.98
2018-08-30T19:15:48.245Z,98794.16
2018-08-30T19:18:23.385Z,98797.97
2018-08-30T19:20:53.023Z,98796.31
2018-08-30T19:23:24.402Z,98803.49
2018-08-30T19:25:55.779Z,98800.77
2018-08-30T19:28:26.416Z,98805.40
2018-08-30T19:30:55.818Z,98800.44
2018-08-30T19:33:25.322Z,98806.67
2018-08-30T19:36:00.151Z,98815.29
2018-08-30T19:38:29.758Z,98813.91
2018-08-30T19:41:05.613Z,98816.05
2018-08-30T19:43:35.062Z,98819.59
2018-08-30T19:46:06.053Z,98820.58
2018-08-30T19:48:37.943Z,98821.72
2018-08-30T19:51:07.520Z,98817.13
2018-08-30T19:53:37.128Z,98821.92
2018-08-30T19:56:07.143Z,98826.39
2018-08-30T19:58:36.608Z,98824.89
2018-08-30T20:01:06.059Z,98829.36
2018-08-30T20:03:35.554Z,98830.64
2018-08-30T20:06:05.263Z,98831.66
2018-08-30T20:08:34.679Z,98834.16
2018-08-30T20:11:04.475Z,98834.35
2018-08-30T20:13:33.944Z,98835.01
2018-08-30T20:16:03.486Z,98844.02
2018-08-30T20:18:32.936Z,98844.17
2018-08-30T20:21:02.394Z,98847.64
2018-08-30T20:23:31.793Z,98845.40
2018-08-30T20:26:01.307Z,98844.07
2018-08-30T20:28:30.700Z,98843.14
2018-08-30T20:31:00.192Z,98846.88
2018-08-30T20:33:29.605Z,98846.69
2018-08-30T20:35:59.008Z,98848.84
2018-08-30T20:38:28.615Z,98847.20
2018-08-30T20:40:58.033Z,98852.61
2018-08-30T20:43:27.524Z,98858.34
2018-08-30T20:45:57.637Z,98853.13
2018-08-30T20:48:27.043Z,98853.75
2018-08-30T20:50:56.263Z,98858.24
2018-08-30T20:53:25.599Z,98858.84
2018-08-30T20:55:55.044Z,98859.77
2018-08-30T20:58:24.650Z,98854.55
2018-08-30T21:00:53.914Z,98857.75
2018-08-30T21:03:23.454Z,98853.77
2018-08-30T21:05:52.855Z,98853.03
2018-08-30T21:08:22.360Z,98855.88
2018-08-30T21:10:52.787Z,98861.47
2018-08-30T21:13:22.087Z,98859.41
2018-08-30T21:15:51.535Z,98858.08
2018-08-30T21:18:21.094Z,98861.45
2018-08-30T21:20:50.549Z,98853.76
2018-08-30T21:23:19.999Z,98856.72
2018-08-30T21:25:49.402Z,98856.80
2018-08-30T21:28:18.907Z,98860.45
2018-08-30T21:30:48.238Z,98862.67
2018-08-30T21:33:17.916Z,98858.59
2018-08-30T21:35:58.798Z,98858.36
2018-08-30T21:38:28.190Z,98864.14
2018-08-30T21:43:31.092Z,98871.89
2018-08-30T21:46:00.491Z,98863.46
2018-08-30T21:48:29.994Z,98864.69
2018-08-30T21:50:59.500Z,98873.03
2018-08-30T21:53:28.900Z,98875.80
2018-08-30T21:55:58.406Z,98876.03
2018-08-30T21:58:27.910Z,98873.27
2018-08-30T22:00:57.358Z,98873.66
2018-08-30T22:03:26.687Z,98883.05
2018-08-30T22:05:56.064Z,98881.05
2018-08-30T22:08:25.570Z,98884.20
2018-08-30T22:10:55.125Z,98883.81
2018-08-30T22:13:24.628Z,98884.20
2018-08-30T22:15:53.883Z,98889.94
2018-08-30T22:18:23.537Z,98886.71
2018-08-30T22:20:52.908Z,98888.55
2018-08-30T22:23:22.296Z,98884.80
2018-08-30T22:25:51.843Z,98888.21
2018-08-30T22:28:21.348Z,98888.37
2018-08-30T22:30:50.751Z,98885.17
2018-08-30T22:33:20.254Z,98885.78
2018-08-30T22:35:49.761Z,98890.10
2018-08-30T22:38:26.028Z,98887.02
2018-08-30T22:40:55.661Z,98887.84
2018-08-30T22:43:25.004Z,98889.11
2018-08-30T22:45:54.431Z,98886.72
2018-08-30T22:48:23.936Z,98889.92
2018-08-30T22:50:53.393Z,98890.42
2018-08-30T22:53:22.906Z,98891.86
2018-08-30T22:55:52.551Z,98894.27
2018-08-30T22:58:22.159Z,98887.50
2018-08-30T23:00:51.615Z,98889.92
2018-08-30T23:03:21.277Z,98887.75
2018-08-30T23:05:51.760Z,98889.58
2018-08-30T23:08:21.506Z,98887.23
2018-08-30T23:10:51.114Z,98890.50
2018-08-30T23:13:20.683Z,98884.69
2018-08-30T23:15:50.430Z,98883.55
2018-08-30T23:18:19.935Z,98891.21
2018-08-30T23:20:49.446Z,98888.13
2018-08-30T23:23:18.842Z,98881.61
2018-08-30T23:25:48.447Z,98884.58
2018-08-30T23:28:17.951Z,98883.05
2018-08-30T23:30:47.319Z,98884.30
2018-08-30T23:33:16.686Z,98882.70
2018-08-30T23:35:46.155Z,98878.13
2018-08-30T23:38:15.621Z,98874.43
2018-08-30T23:40:44.961Z,98881.55
2018-08-30T23:43:14.464Z,98877.27
2018-08-30T23:45:43.916Z,98879.80
2018-08-30T23:48:13.208Z,98879.34
2018-08-30T23:50:42.774Z,98877.03
2018-08-30T23:53:12.277Z,98869.78
2018-08-30T23:55:41.780Z,98881.05
2018-08-30T23:59:24.401Z,98881.79
